Woodburn, Mississippi
Current Conditions -  °F | °C
As of 9:53 AM on Friday 21 Nov 2014 (Local Time) from KGLH Reporting Station
Overcast Overcast  
Wind Chill: 13°   Ceiling: 6500
Heat Index: 13°   Visibility: 10mi
Dew Point:   Wind: 5mph
Humidity: 72%   Direction: 170°S
Pressure: 30.31"   Gusts: NA
Location:  33.4825°N, 90.6856°W
Report Text: KGLH 211553Z AUTO 17004KT 10SM OVC065 13/08 A3031 RMK AO2 SLP272 T01330083
Loading
Personal Weather Stations






























Interactive Weather Map New forecast layout! Learn more

10-Day Weather Forecast

Advertisements
Track Severe Weather on mobile